Time;durP1;ratioP1;P1;durP2;ratioP2;P2;SDS_P1;SDS_P2;PMS_P1;PMS_P2;Temp;Humidity;BMP_temperature;BMP_pressure;BME280_temperature;BME280_humidity;BME280_pressure;Samples;Min_cycle;Max_cycle;Signal;HPM_P1;HPM_P2
2021/03/03 00:03:55;;;;;;;25.47;13.00;;;10.30;64.70;;;;;;8322010;28;20445;-74
2021/03/03 00:07:55;;;;;;;20.63;11.70;;;9.90;65.80;;;;;;8335676;28;20215;-74
2021/03/03 00:12:02;;;;;;;23.97;12.07;;;9.60;66.80;;;;;;8318047;28;20213;-74
2021/03/03 00:16:11;;;;;;;20.37;11.73;;;9.40;67.50;;;;;;8318313;28;20188;-74
2021/03/03 00:20:15;;;;;;;25.63;12.90;;;9.20;68.20;;;;;;8323320;28;20465;-74
2021/03/03 00:24:19;;;;;;;21.37;12.80;;;9.10;68.70;;;;;;8322621;28;20530;-74
2021/03/03 00:28:24;;;;;;;26.10;15.30;;;9.00;68.90;;;;;;8317900;28;20474;-74
2021/03/03 00:32:28;;;;;;;18.83;11.00;;;9.00;69.00;;;;;;8321326;28;21001;-74
2021/03/03 00:36:29;;;;;;;20.93;11.93;;;8.90;69.00;;;;;;8323078;28;20443;-74
2021/03/03 00:40:44;;;;;;;21.23;11.03;;;8.90;69.10;;;;;;8326009;28;20189;-74
2021/03/03 00:44:45;;;;;;;26.23;12.37;;;8.90;69.30;;;;;;8313885;28;20449;-74
2021/03/03 00:48:53;;;;;;;30.97;14.00;;;8.80;69.40;;;;;;8317714;28;20514;-74
2021/03/03 00:52:57;;;;;;;24.40;13.10;;;8.80;69.50;;;;;;8317322;28;20480;-75
2021/03/03 00:57:02;;;;;;;16.43;10.63;;;8.80;69.50;;;;;;8320244;28;20435;-75
2021/03/03 01:01:06;;;;;;;22.33;11.77;;;8.80;69.50;;;;;;8302402;28;20451;-75
2021/03/03 01:05:07;;;;;;;24.43;13.40;;;8.80;69.50;;;;;;8320517;28;20454;-75
2021/03/03 01:09:11;;;;;;;25.57;13.40;;;8.80;69.50;;;;;;8314947;28;20227;-75
2021/03/03 01:13:17;;;;;;;27.57;13.77;;;8.80;69.50;;;;;;8317489;28;20475;-75
2021/03/03 01:17:18;;;;;;;22.03;11.30;;;8.80;69.40;;;;;;8325978;28;20208;-75
2021/03/03 01:21:22;;;;;;;26.97;12.83;;;8.80;69.20;;;;;;8299126;28;20552;-74
2021/03/03 01:25:23;;;;;;;23.57;12.03;;;8.90;69.10;;;;;;8314626;28;20508;-75
2021/03/03 01:29:31;;;;;;;20.53;10.70;;;8.90;69.10;;;;;;8318334;28;20177;-75
2021/03/03 01:33:32;;;;;;;19.80;11.63;;;8.80;68.90;;;;;;8310488;28;20521;-75
2021/03/03 01:37:33;;;;;;;30.73;12.50;;;8.80;68.90;;;;;;8302883;28;20240;-75
2021/03/03 01:41:34;;;;;;;22.83;13.87;;;8.90;69.30;;;;;;8305833;28;20473;-75
2021/03/03 01:45:49;;;;;;;28.43;12.50;;;8.90;68.90;;;;;;8322856;28;20455;-75
2021/03/03 01:49:49;;;;;;;27.27;14.43;;;8.80;69.00;;;;;;8311824;28;20202;-75
2021/03/03 01:53:54;;;;;;;20.50;11.80;;;8.70;69.20;;;;;;8292784;28;20476;-75
2021/03/03 01:57:55;;;;;;;20.70;12.10;;;8.70;69.20;;;;;;8312260;28;20448;-75
2021/03/03 02:01:55;;;;;;;25.70;13.80;;;8.70;69.30;;;;;;8320466;28;20199;-76
2021/03/03 02:06:12;;;;;;;33.03;14.57;;;8.60;69.50;;;;;;8318495;28;20494;-76
2021/03/03 02:10:22;;;;;;;25.70;12.33;;;8.60;69.50;;;;;;8316827;28;20473;-76
2021/03/03 02:14:25;;;;;;;26.23;10.53;;;8.60;69.80;;;;;;8317915;28;20805;-77
2021/03/03 02:18:28;;;;;;;31.60;13.17;;;8.60;69.80;;;;;;8323990;28;20451;-76
2021/03/03 02:22:51;;;;;;;24.60;12.50;;;8.60;69.80;;;;;;8308190;28;20483;-76
2021/03/03 02:26:52;;;;;;;18.80;11.53;;;8.60;69.70;;;;;;8310733;28;20452;-76
2021/03/03 02:31:01;;;;;;;25.87;11.83;;;8.60;69.60;;;;;;8314461;28;20474;-76
2021/03/03 02:35:03;;;;;;;23.83;11.83;;;8.60;69.60;;;;;;8294020;28;20457;-76
2021/03/03 02:39:09;;;;;;;24.77;11.83;;;8.60;69.70;;;;;;8321085;28;20451;-76
2021/03/03 02:43:20;;;;;;;30.83;12.80;;;8.60;69.80;;;;;;8319264;28;20535;-76
2021/03/03 02:47:23;;;;;;;19.83;10.27;;;8.60;69.70;;;;;;8318271;28;20450;-76
2021/03/03 02:51:24;;;;;;;25.37;13.30;;;8.60;69.60;;;;;;8320013;28;20464;-76
2021/03/03 02:55:27;;;;;;;29.67;13.30;;;8.60;69.90;;;;;;8316743;28;20473;-76
2021/03/03 02:59:55;;;;;;;20.80;12.90;;;8.50;69.80;;;;;;8313952;28;20185;-76
2021/03/03 03:04:02;;;;;;;19.47;12.37;;;8.40;70.00;;;;;;8312032;28;20463;-76
2021/03/03 03:08:10;;;;;;;28.67;12.70;;;8.30;70.40;;;;;;8314734;28;20481;-76
2021/03/03 03:12:14;;;;;;;25.47;12.07;;;8.30;71.00;;;;;;8317309;28;20995;-76
2021/03/03 03:16:19;;;;;;;22.07;10.93;;;8.50;70.30;;;;;;8320402;28;20447;-76
2021/03/03 03:20:25;;;;;;;15.30;10.30;;;8.90;69.30;;;;;;8311083;28;20463;-76
2021/03/03 03:24:28;;;;;;;30.10;13.20;;;9.00;68.70;;;;;;8306559;28;20451;-77
2021/03/03 03:28:36;;;;;;;21.53;10.93;;;9.10;68.60;;;;;;8321232;28;20443;-76
2021/03/03 03:32:39;;;;;;;28.63;13.57;;;9.10;68.50;;;;;;8319708;28;20499;-77
2021/03/03 03:36:43;;;;;;;22.93;11.97;;;9.00;68.60;;;;;;8320718;28;20444;-76
2021/03/03 03:40:48;;;;;;;26.10;13.00;;;8.90;68.90;;;;;;8319851;28;20443;-77
2021/03/03 03:44:53;;;;;;;18.90;10.70;;;8.80;69.50;;;;;;8309772;28;20479;-76
2021/03/03 03:48:55;;;;;;;24.03;12.87;;;8.60;69.80;;;;;;8302050;28;20475;-76
2021/03/03 03:52:57;;;;;;;26.07;12.47;;;8.50;69.90;;;;;;8317600;28;20514;-76
2021/03/03 03:57:01;;;;;;;23.17;13.00;;;8.50;70.40;;;;;;8315039;28;20574;-76
2021/03/03 04:01:05;;;;;;;23.03;12.47;;;8.40;70.70;;;;;;8311890;28;20484;-76
2021/03/03 04:05:07;;;;;;;25.53;12.40;;;8.40;71.00;;;;;;8319260;28;20449;-77
2021/03/03 04:09:11;;;;;;;29.53;13.00;;;8.40;71.20;;;;;;8311220;28;20477;-77
2021/03/03 04:13:12;;;;;;;30.00;13.00;;;8.30;71.20;;;;;;8317697;28;20475;-77
2021/03/03 04:17:12;;;;;;;23.80;12.83;;;8.40;70.90;;;;;;8303154;28;20197;-77
2021/03/03 04:21:16;;;;;;;22.60;12.93;;;8.30;71.10;;;;;;8314551;28;20232;-75
2021/03/03 04:25:21;;;;;;;21.83;12.20;;;8.30;71.40;;;;;;8308474;28;20496;-76
2021/03/03 04:29:25;;;;;;;21.73;11.50;;;8.40;71.60;;;;;;8315198;28;20912;-75
2021/03/03 04:33:30;;;;;;;24.67;12.00;;;8.50;71.10;;;;;;8297261;28;20472;-76
2021/03/03 04:37:34;;;;;;;23.07;12.00;;;8.60;70.80;;;;;;8311455;28;21004;-75
2021/03/03 04:41:35;;;;;;;21.40;14.10;;;8.70;70.70;;;;;;8306416;28;20450;-76
2021/03/03 04:45:40;;;;;;;63.57;32.43;;;8.70;70.50;;;;;;8315477;28;20812;-76
2021/03/03 04:49:48;;;;;;;114.20;50.30;;;8.80;70.10;;;;;;8324268;28;20440;-77
2021/03/03 04:53:49;;;;;;;63.93;32.97;;;9.10;69.40;;;;;;8324930;28;20537;-75
2021/03/03 04:57:55;;;;;;;26.93;14.43;;;9.30;68.80;;;;;;8315123;28;20191;-77
2021/03/03 05:02:03;;;;;;;25.37;15.30;;;9.50;68.30;;;;;;8322032;28;20445;-77
2021/03/03 05:06:03;;;;;;;27.10;16.27;;;9.70;67.60;;;;;;8306398;28;20444;-77
2021/03/03 05:10:05;;;;;;;32.17;15.00;;;9.90;67.10;;;;;;8299444;28;20222;-76
2021/03/03 05:14:05;;;;;;;29.37;13.67;;;10.00;66.60;;;;;;8301781;28;20250;-76
2021/03/03 05:18:07;;;;;;;23.97;11.13;;;10.00;67.00;;;;;;8315882;28;20456;-76
2021/03/03 05:22:12;;;;;;;37.57;14.27;;;10.20;65.70;;;;;;8309191;28;20276;-76
2021/03/03 05:26:13;;;;;;;28.10;12.30;;;10.30;65.30;;;;;;8319892;28;20445;-76
2021/03/03 05:30:20;;;;;;;26.90;13.90;;;10.50;64.30;;;;;;8320775;28;20196;-77
2021/03/03 05:34:24;;;;;;;29.10;13.20;;;10.80;63.50;;;;;;8324674;28;20473;-76
2021/03/03 05:38:36;;;;;;;24.87;13.43;;;10.90;63.00;;;;;;8317937;28;20533;-77
2021/03/03 05:42:41;;;;;;;28.00;14.57;;;11.10;62.00;;;;;;8316667;28;20204;-75
2021/03/03 05:46:56;;;;;;;27.00;14.23;;;11.40;61.30;;;;;;8303349;28;20466;-78
2021/03/03 05:51:03;;;;;;;28.63;13.13;;;11.40;61.30;;;;;;8316453;28;20472;-75
2021/03/03 05:55:06;;;;;;;24.07;12.73;;;11.10;62.10;;;;;;8319792;28;21143;-76
2021/03/03 05:59:11;;;;;;;27.77;14.27;;;10.80;62.90;;;;;;8310274;28;20442;-75
2021/03/03 06:03:12;;;;;;;26.10;12.90;;;10.60;63.70;;;;;;8314561;28;20454;-75
2021/03/03 06:07:22;;;;;;;27.33;13.87;;;10.40;64.20;;;;;;8322364;28;20448;-76
2021/03/03 06:11:33;;;;;;;23.63;13.67;;;10.20;64.70;;;;;;8321835;28;21172;-76
2021/03/03 06:15:38;;;;;;;26.07;13.30;;;10.00;65.20;;;;;;8322161;28;21166;-76
2021/03/03 06:19:44;;;;;;;34.03;20.30;;;9.80;66.40;;;;;;8318519;28;20450;-74
2021/03/03 06:24:03;;;;;;;30.63;16.47;;;9.50;67.60;;;;;;8308956;28;20516;-74
2021/03/03 06:28:11;;;;;;;23.30;13.53;;;9.20;68.40;;;;;;8303682;28;20457;-74
2021/03/03 06:32:13;;;;;;;24.23;14.93;;;9.00;69.20;;;;;;8313929;28;20464;-75
2021/03/03 06:36:27;;;;;;;21.70;13.50;;;8.80;69.70;;;;;;8280707;28;20476;-73
2021/03/03 06:40:29;;;;;;;28.80;16.23;;;8.60;70.40;;;;;;8308427;28;20446;-73
2021/03/03 06:44:47;;;;;;;25.73;14.93;;;8.60;70.70;;;;;;8306160;28;21213;-73
2021/03/03 06:48:49;;;;;;;29.40;15.13;;;8.50;71.00;;;;;;8314597;28;20469;-74
2021/03/03 06:52:52;;;;;;;25.20;14.20;;;8.40;71.40;;;;;;8314765;28;20483;-74
2021/03/03 06:56:55;;;;;;;33.80;16.40;;;8.40;71.90;;;;;;8318550;28;20557;-74
2021/03/03 07:00:58;;;;;;;24.07;15.70;;;8.40;72.20;;;;;;8306903;28;20447;-73
2021/03/03 07:05:03;;;;;;;31.37;15.87;;;8.30;72.50;;;;;;8299895;28;20499;-74
2021/03/03 07:09:15;;;;;;;31.67;18.50;;;8.30;72.80;;;;;;8318525;28;20870;-74
2021/03/03 07:13:16;;;;;;;29.10;15.60;;;8.30;73.00;;;;;;8293073;28;20482;-74
2021/03/03 07:17:22;;;;;;;26.17;16.23;;;8.40;73.10;;;;;;8304087;28;20452;-74
2021/03/03 07:21:36;;;;;;;29.10;16.50;;;8.40;72.90;;;;;;8313090;28;20470;-74
2021/03/03 07:25:42;;;;;;;27.17;16.67;;;8.40;72.90;;;;;;8310961;28;21103;-74
2021/03/03 07:29:52;;;;;;;34.77;16.20;;;8.50;73.10;;;;;;8306434;28;20492;-74
2021/03/03 07:33:56;;;;;;;38.73;17.47;;;8.60;73.10;;;;;;8305214;28;20479;-73
2021/03/03 07:38:15;;;;;;;32.80;18.50;;;8.80;73.00;;;;;;8312187;28;20952;-74
2021/03/03 07:42:30;;;;;;;31.13;20.37;;;9.10;72.10;;;;;;8313855;28;20956;-74
2021/03/03 07:46:32;;;;;;;34.70;17.37;;;9.50;71.00;;;;;;8314047;28;20451;-73
2021/03/03 07:50:38;;;;;;;53.43;27.50;;;10.00;68.20;;;;;;8315297;28;20450;-74
2021/03/03 07:54:39;;;;;;;39.23;21.13;;;10.60;66.90;;;;;;8307187;28;20461;-74
2021/03/03 07:58:49;;;;;;;46.97;21.30;;;11.10;64.90;;;;;;8314943;28;20447;-74
2021/03/03 08:02:52;;;;;;;39.73;20.07;;;11.60;64.00;;;;;;8309996;28;20444;-73
2021/03/03 08:07:16;;;;;;;33.73;17.57;;;12.20;62.70;;;;;;8311896;28;20443;-73
2021/03/03 08:11:17;;;;;;;36.30;19.70;;;12.90;61.50;;;;;;8312489;28;21026;-74
2021/03/03 08:15:41;;;;;;;45.53;19.17;;;13.60;59.70;;;;;;8303730;28;20460;-74
2021/03/03 08:19:59;;;;;;;26.70;16.07;;;14.20;58.60;;;;;;8311368;28;20445;-73
2021/03/03 08:24:02;;;;;;;32.93;15.70;;;15.00;57.60;;;;;;8317017;28;20476;-74
2021/03/03 08:28:24;;;;;;;28.73;15.13;;;15.70;54.90;;;;;;8297674;28;20458;-75
2021/03/03 08:32:31;;;;;;;30.33;15.80;;;16.50;52.90;;;;;;8310195;28;20471;-76
2021/03/03 08:36:36;;;;;;;21.23;13.37;;;17.20;53.70;;;;;;8311640;28;20795;-75
2021/03/03 08:40:38;;;;;;;25.03;14.33;;;17.80;52.20;;;;;;8300797;28;20518;-75
2021/03/03 08:45:05;;;;;;;28.93;14.77;;;18.40;49.40;;;;;;8297509;28;20516;-74
2021/03/03 08:49:13;;;;;;;29.53;16.57;;;19.30;50.60;;;;;;8309646;28;20583;-74
2021/03/03 08:53:22;;;;;;;38.40;17.37;;;19.80;50.70;;;;;;8311732;28;20472;-73
2021/03/03 08:57:45;;;;;;;32.00;16.33;;;20.40;49.70;;;;;;8308804;28;20192;-74
2021/03/03 09:02:09;;;;;;;31.43;17.20;;;21.00;48.10;;;;;;8304117;28;20432;-73
2021/03/03 09:06:22;;;;;;;27.33;15.57;;;21.40;47.70;;;;;;8305827;28;20975;-74
2021/03/03 09:10:30;;;;;;;26.73;16.53;;;21.70;46.30;;;;;;8313107;28;20602;-74
2021/03/03 09:14:36;;;;;;;28.90;17.17;;;22.10;45.20;;;;;;8315898;28;20465;-74
2021/03/03 09:18:42;;;;;;;30.53;15.83;;;22.50;42.30;;;;;;8312257;28;20442;-75
2021/03/03 09:22:46;;;;;;;27.17;14.90;;;23.00;42.80;;;;;;8288453;28;20502;-74
2021/03/03 09:27:07;;;;;;;25.37;15.53;;;23.30;41.90;;;;;;8334001;28;20478;-75
2021/03/03 09:31:08;;;;;;;26.70;17.13;;;23.50;41.30;;;;;;8305122;28;20544;-75
2021/03/03 09:35:14;;;;;;;27.73;16.07;;;23.40;42.00;;;;;;8308258;28;20435;-74
2021/03/03 09:39:21;;;;;;;30.23;16.70;;;23.60;41.50;;;;;;8304802;28;20520;-75
2021/03/03 09:43:26;;;;;;;37.43;16.43;;;23.60;41.10;;;;;;8327309;28;20813;-74
2021/03/03 09:47:27;;;;;;;27.00;16.83;;;23.30;41.40;;;;;;8305988;28;20497;-75
2021/03/03 09:51:46;;;;;;;28.77;17.80;;;23.00;41.90;;;;;;8311705;28;20465;-74
2021/03/03 09:55:49;;;;;;;26.73;16.60;;;23.30;41.30;;;;;;8309509;28;20513;-76
2021/03/03 09:59:54;;;;;;;31.17;16.43;;;23.50;40.50;;;;;;8314154;28;20439;-75
2021/03/03 10:03:56;;;;;;;33.43;17.00;;;23.60;40.00;;;;;;8316649;28;21173;-74
2021/03/03 10:08:11;;;;;;;27.07;17.30;;;23.60;40.10;;;;;;8313652;28;20462;-76
2021/03/03 10:12:20;;;;;;;28.90;16.17;;;23.90;39.70;;;;;;8308927;28;20482;-74
2021/03/03 10:16:30;;;;;;;26.43;16.40;;;24.00;40.20;;;;;;8312872;28;20459;-75
2021/03/03 10:20:39;;;;;;;28.97;17.13;;;24.40;39.50;;;;;;8307270;28;20488;-76
2021/03/03 10:24:40;;;;;;;34.77;18.53;;;24.60;39.20;;;;;;8302520;28;20474;-74
2021/03/03 10:28:41;;;;;;;31.80;16.80;;;24.70;38.60;;;;;;8308184;28;20494;-74
2021/03/03 10:32:45;;;;;;;32.20;18.43;;;24.60;38.80;;;;;;8309027;28;20244;-75
2021/03/03 10:36:47;;;;;;;35.63;16.60;;;24.50;38.60;;;;;;8293441;28;20513;-75
2021/03/03 10:40:55;;;;;;;34.63;17.40;;;24.50;39.00;;;;;;8308800;28;20279;-75
2021/03/03 10:45:00;;;;;;;30.57;19.00;;;24.40;37.90;;;;;;8300739;28;20455;-75
2021/03/03 10:49:31;;;;;;;32.10;18.23;;;24.20;39.40;;;;;;8310127;28;20447;-74
2021/03/03 10:54:00;;;;;;;27.73;17.70;;;24.20;38.20;;;;;;8307463;28;20585;-75
2021/03/03 10:58:19;;;;;;;37.90;17.70;;;23.80;38.70;;;;;;8307129;28;21048;-75
2021/03/03 11:02:28;;;;;;;34.17;17.73;;;23.70;38.90;;;;;;8330466;28;20481;-76
2021/03/03 11:06:39;;;;;;;36.67;18.87;;;23.60;39.70;;;;;;8308574;28;20446;-74
2021/03/03 11:10:40;;;;;;;33.07;19.27;;;23.70;39.50;;;;;;8305359;28;20514;-75
2021/03/03 11:14:41;;;;;;;33.67;18.30;;;23.80;39.10;;;;;;8291370;28;20470;-75
2021/03/03 11:18:50;;;;;;;38.97;20.17;;;23.70;38.10;;;;;;8305783;28;20290;-74
2021/03/03 11:22:52;;;;;;;38.13;20.07;;;23.40;38.00;;;;;;8308427;28;21024;-74
2021/03/03 11:26:59;;;;;;;31.03;18.60;;;23.20;38.50;;;;;;8303124;28;20443;-74
2021/03/03 11:31:00;;;;;;;33.33;19.40;;;23.30;39.00;;;;;;8309521;28;20447;-74
2021/03/03 11:35:06;;;;;;;36.70;18.87;;;23.40;38.40;;;;;;8314178;28;20446;-78
2021/03/03 11:39:09;;;;;;;33.10;17.80;;;23.60;39.10;;;;;;8307722;28;20451;-79
2021/03/03 11:43:11;;;;;;;41.40;17.53;;;23.80;37.40;;;;;;8327336;28;20450;-78
2021/03/03 11:47:36;;;;;;;40.63;19.67;;;23.70;38.00;;;;;;8307764;28;20466;-80
2021/03/03 11:51:52;;;;;;;44.70;19.27;;;23.60;38.20;;;;;;8321694;28;20482;-79
2021/03/03 11:55:53;;;;;;;38.43;19.17;;;23.60;38.70;;;;;;8327316;28;20455;-79
2021/03/03 11:59:54;;;;;;;44.33;17.97;;;23.80;38.50;;;;;;8330478;28;20476;-78
2021/03/03 12:04:06;;;;;;;36.93;18.17;;;24.00;38.50;;;;;;8328296;28;20192;-77
2021/03/03 12:08:12;;;;;;;40.43;19.57;;;24.30;38.00;;;;;;8338840;28;20466;-78
2021/03/03 12:12:17;;;;;;;37.17;18.07;;;24.20;37.90;;;;;;8334790;28;20493;-79
2021/03/03 12:16:22;;;;;;;39.30;17.47;;;24.00;37.80;;;;;;8339660;28;20507;-78
2021/03/03 12:20:24;;;;;;;35.33;18.00;;;24.00;37.60;;;;;;8334654;28;20450;-79
2021/03/03 12:24:28;;;;;;;44.53;19.23;;;23.80;38.00;;;;;;8324115;28;20849;-76
2021/03/03 12:28:29;;;;;;;42.90;18.60;;;23.80;37.80;;;;;;8295924;28;20449;-78
2021/03/03 12:32:30;;;;;;;38.20;17.67;;;23.70;37.60;;;;;;8302370;28;20476;-77
2021/03/03 12:36:37;;;;;;;32.90;17.37;;;23.50;38.00;;;;;;8325525;28;20239;-78
2021/03/03 12:40:38;;;;;;;36.57;17.87;;;23.50;38.20;;;;;;8301856;28;20458;-76
2021/03/03 12:44:47;;;;;;;37.03;19.63;;;23.50;38.20;;;;;;8317813;28;20544;-76
2021/03/03 12:48:47;;;;;;;53.03;19.67;;;23.30;37.80;;;;;;8324553;28;20450;-78
2021/03/03 12:52:52;;;;;;;27.20;16.00;;;23.10;39.00;;;;;;8310524;28;20451;-77
2021/03/03 12:56:58;;;;;;;36.83;18.37;;;23.20;38.90;;;;;;8316082;28;20172;-75
2021/03/03 13:01:09;;;;;;;41.30;18.60;;;23.50;39.00;;;;;;8316030;28;20417;-75
2021/03/03 13:05:11;;;;;;;39.50;18.83;;;23.70;38.80;;;;;;8316656;28;20443;-75
2021/03/03 13:09:17;;;;;;;42.63;18.80;;;23.80;38.70;;;;;;8322661;28;21062;-76
2021/03/03 13:13:17;;;;;;;37.73;17.73;;;23.90;38.20;;;;;;8319135;28;20659;-75
2021/03/03 13:17:18;;;;;;;30.40;16.77;;;23.90;38.50;;;;;;8303330;28;20418;-75
2021/03/03 13:21:22;;;;;;;36.70;18.60;;;23.70;38.50;;;;;;8322215;28;20291;-74
2021/03/03 13:25:23;;;;;;;36.83;15.73;;;23.60;38.60;;;;;;8318013;28;20429;-76
2021/03/03 13:29:30;;;;;;;36.30;17.30;;;23.50;38.60;;;;;;8323614;28;20250;-75
2021/03/03 13:33:32;;;;;;;42.87;18.50;;;23.40;38.80;;;;;;8297612;28;20459;-75
2021/03/03 13:37:34;;;;;;;37.60;18.80;;;23.40;39.00;;;;;;8314380;28;20421;-74
2021/03/03 13:41:38;;;;;;;34.37;19.40;;;23.50;39.30;;;;;;8307339;28;20532;-75
2021/03/03 13:45:43;;;;;;;44.63;20.40;;;23.40;39.00;;;;;;8316605;28;20482;-76
2021/03/03 13:49:48;;;;;;;38.50;18.83;;;23.20;39.10;;;;;;8295333;28;20431;-72
2021/03/03 13:53:51;;;;;;;42.73;20.97;;;23.10;40.00;;;;;;8306646;28;20449;-75
2021/03/03 13:57:54;;;;;;;37.47;18.10;;;23.10;39.80;;;;;;8315479;28;20463;-72
2021/03/03 14:01:54;;;;;;;31.50;19.27;;;23.10;39.70;;;;;;8305437;28;20524;-70
2021/03/03 14:05:55;;;;;;;33.33;18.23;;;23.00;39.60;;;;;;8316456;28;20517;-72
2021/03/03 14:09:56;;;;;;;46.13;19.20;;;22.80;39.70;;;;;;8309657;28;20614;-71
2021/03/03 14:13:56;;;;;;;43.27;20.43;;;22.70;40.50;;;;;;8308121;28;20222;-71
2021/03/03 14:18:02;;;;;;;37.00;19.33;;;22.70;40.50;;;;;;8313772;28;20188;-70
2021/03/03 14:22:04;;;;;;;39.40;18.93;;;22.70;40.50;;;;;;8307813;28;20429;-72
2021/03/03 14:26:05;;;;;;;51.10;20.93;;;22.60;40.10;;;;;;8307665;28;20453;-71
2021/03/03 14:30:06;;;;;;;40.40;18.87;;;22.60;40.50;;;;;;8306132;28;20454;-70
2021/03/03 14:34:07;;;;;;;39.10;18.30;;;22.60;40.00;;;;;;8301990;28;21917;-71
2021/03/03 14:38:08;;;;;;;28.80;15.43;;;22.50;39.80;;;;;;8310085;28;24357;-70
2021/03/03 14:42:09;;;;;;;48.57;19.27;;;22.30;40.60;;;;;;8312657;28;20187;-71
2021/03/03 14:46:14;;;;;;;35.50;16.83;;;22.10;41.00;;;;;;8306231;28;20454;-71
2021/03/03 14:50:15;;;;;;;30.40;18.00;;;22.10;40.90;;;;;;8290195;28;20432;-72
2021/03/03 14:54:16;;;;;;;40.97;19.00;;;22.10;41.20;;;;;;8295010;28;20517;-70
2021/03/03 14:58:17;;;;;;;31.17;17.90;;;22.00;41.40;;;;;;8306810;28;20510;-70
2021/03/03 15:02:22;;;;;;;49.07;18.30;;;22.10;41.20;;;;;;8300024;28;20434;-71
2021/03/03 15:06:23;;;;;;;37.87;17.90;;;22.10;41.20;;;;;;8304865;28;20477;-72
2021/03/03 15:10:26;;;;;;;41.23;17.70;;;22.20;40.50;;;;;;8292647;28;20238;-71
2021/03/03 15:14:35;;;;;;;43.63;19.10;;;22.10;41.10;;;;;;8309366;28;20210;-74
2021/03/03 15:18:36;;;;;;;36.73;17.90;;;22.10;42.00;;;;;;8305685;28;20515;-71
2021/03/03 15:22:42;;;;;;;34.13;19.23;;;22.00;41.70;;;;;;8301473;28;20531;-70
2021/03/03 15:26:45;;;;;;;42.47;18.57;;;21.80;42.40;;;;;;8300987;28;20453;-70
2021/03/03 15:30:49;;;;;;;41.47;19.67;;;21.70;42.80;;;;;;8303017;28;21000;-71
2021/03/03 15:34:51;;;;;;;40.93;19.30;;;21.60;43.30;;;;;;8308109;28;20487;-71
2021/03/03 15:38:52;;;;;;;43.07;19.40;;;21.40;43.70;;;;;;8290092;28;20933;-71
2021/03/03 15:42:59;;;;;;;52.40;20.17;;;21.20;44.90;;;;;;8299007;28;20415;-71
2021/03/03 15:46:59;;;;;;;37.47;20.23;;;21.00;45.60;;;;;;8310811;28;20438;-71
2021/03/03 15:51:00;;;;;;;41.47;20.70;;;20.80;46.00;;;;;;8308592;28;20509;-72
2021/03/03 15:55:05;;;;;;;42.80;21.37;;;20.70;46.00;;;;;;8311920;28;20562;-71
2021/03/03 15:59:13;;;;;;;47.23;21.27;;;20.50;47.10;;;;;;8311535;28;21013;-71
2021/03/03 16:03:15;;;;;;;54.60;20.47;;;20.20;47.50;;;;;;8290260;28;21017;-71
2021/03/03 16:07:23;;;;;;;53.57;21.77;;;20.10;47.20;;;;;;8299789;28;20561;-71
2021/03/03 16:11:25;;;;;;;49.50;23.77;;;19.90;47.00;;;;;;8290446;28;20506;-71
2021/03/03 16:15:26;;;;;;;65.00;22.50;;;19.70;47.10;;;;;;8302121;28;20945;-74
2021/03/03 16:19:26;;;;;;;47.87;22.10;;;19.50;47.60;;;;;;8307168;28;21401;-75
2021/03/03 16:23:31;;;;;;;60.47;25.37;;;19.30;48.30;;;;;;8318125;28;20214;-75
2021/03/03 16:27:32;;;;;;;40.40;21.13;;;19.10;48.80;;;;;;8311535;28;20971;-75
2021/03/03 16:31:34;;;;;;;48.03;20.83;;;18.90;49.30;;;;;;8318915;28;20569;-75
2021/03/03 16:35:36;;;;;;;37.40;20.07;;;18.70;49.60;;;;;;8311625;28;20468;-75
2021/03/03 16:39:37;;;;;;;52.20;21.57;;;18.50;50.80;;;;;;8294206;28;20450;-76
2021/03/03 16:43:38;;;;;;;39.70;20.80;;;18.30;51.60;;;;;;8292623;28;20445;-75
2021/03/03 16:47:42;;;;;;;41.17;20.03;;;18.10;52.40;;;;;;8315696;28;20202;-74
2021/03/03 16:51:42;;;;;;;45.17;21.17;;;18.00;52.70;;;;;;8317566;28;20213;-74
2021/03/03 16:55:43;;;;;;;41.03;20.50;;;17.80;52.60;;;;;;8323229;28;20496;-74
2021/03/03 16:59:44;;;;;;;50.80;23.30;;;17.70;53.00;;;;;;8326181;28;20216;-75
2021/03/03 17:03:45;;;;;;;53.90;25.10;;;17.50;53.60;;;;;;8321711;28;20199;-75
2021/03/03 17:07:49;;;;;;;58.70;26.47;;;17.40;54.20;;;;;;8319057;28;20232;-74
2021/03/03 17:11:56;;;;;;;62.83;25.23;;;17.10;54.90;;;;;;8319371;28;20467;-74
2021/03/03 17:16:00;;;;;;;58.93;23.73;;;17.00;55.40;;;;;;8324656;28;20553;-74
2021/03/03 17:20:01;;;;;;;58.47;25.27;;;16.70;55.70;;;;;;8316944;28;20493;-75
2021/03/03 17:24:02;;;;;;;66.93;25.80;;;16.50;56.30;;;;;;8315892;28;20189;-75
2021/03/03 17:28:03;;;;;;;42.50;23.13;;;16.30;57.60;;;;;;8321210;28;20198;-77
2021/03/03 17:32:04;;;;;;;53.80;22.97;;;16.00;58.40;;;;;;8313755;28;20866;-74
2021/03/03 17:36:08;;;;;;;56.53;24.97;;;15.80;59.20;;;;;;8319616;28;20502;-74
2021/03/03 17:40:11;;;;;;;53.47;23.10;;;15.50;59.50;;;;;;8317228;28;20876;-75
2021/03/03 17:44:13;;;;;;;56.97;23.17;;;15.30;59.80;;;;;;8310203;28;20438;-74
2021/03/03 17:48:18;;;;;;;73.50;25.03;;;15.10;60.60;;;;;;8315715;28;20780;-74
2021/03/03 17:52:19;;;;;;;50.30;25.73;;;14.80;60.70;;;;;;8310207;28;20832;-75
2021/03/03 17:56:28;;;;;;;52.43;24.33;;;14.70;61.00;;;;;;8322621;28;20181;-75
2021/03/03 18:00:29;;;;;;;58.93;25.60;;;14.50;62.40;;;;;;8322545;28;20229;-75
2021/03/03 18:04:30;;;;;;;51.07;26.17;;;14.30;62.10;;;;;;8318645;28;20459;-75
2021/03/03 18:08:34;;;;;;;60.07;28.50;;;14.10;63.00;;;;;;8316724;28;20212;-74
2021/03/03 18:12:41;;;;;;;66.20;29.30;;;13.90;63.50;;;;;;8294613;28;20228;-79
2021/03/03 18:16:43;;;;;;;55.00;29.03;;;13.80;64.00;;;;;;8317800;28;20580;-75
2021/03/03 18:20:44;;;;;;;68.27;29.73;;;13.60;64.40;;;;;;8309057;28;20464;-74
2021/03/03 18:24:50;;;;;;;57.23;27.93;;;13.50;64.80;;;;;;8312768;28;20773;-74
2021/03/03 18:28:52;;;;;;;91.97;32.13;;;13.40;65.10;;;;;;8315291;28;20459;-74
2021/03/03 18:32:53;;;;;;;59.43;29.30;;;13.40;65.50;;;;;;8321932;28;20469;-74
2021/03/03 18:36:55;;;;;;;63.90;29.93;;;13.30;65.60;;;;;;8313133;28;20438;-74
2021/03/03 18:40:57;;;;;;;68.03;30.83;;;13.30;65.70;;;;;;8313191;28;20439;-73
2021/03/03 18:45:01;;;;;;;51.73;29.50;;;13.30;65.60;;;;;;8319658;28;20553;-74
2021/03/03 18:49:07;;;;;;;74.87;30.10;;;13.30;65.80;;;;;;8313924;28;20526;-74
2021/03/03 18:53:10;;;;;;;54.43;26.30;;;13.30;66.40;;;;;;8298609;28;20467;-74
2021/03/03 18:57:11;;;;;;;72.17;31.47;;;13.20;66.60;;;;;;8316390;28;20501;-73
2021/03/03 19:01:13;;;;;;;59.90;29.77;;;13.20;66.70;;;;;;8314653;28;20444;-74
2021/03/03 19:05:17;;;;;;;70.50;32.57;;;13.10;66.80;;;;;;8316430;28;20898;-75
2021/03/03 19:09:18;;;;;;;65.23;31.97;;;13.00;66.70;;;;;;8302827;28;20494;-75
2021/03/03 19:13:25;;;;;;;67.40;35.70;;;12.90;66.50;;;;;;8313552;28;20836;-74
2021/03/03 19:17:28;;;;;;;65.10;33.50;;;12.80;66.70;;;;;;8314940;28;20451;-75
2021/03/03 19:21:28;;;;;;;69.97;33.10;;;12.70;67.00;;;;;;8314054;28;20454;-75
2021/03/03 19:25:31;;;;;;;78.40;32.67;;;12.60;67.00;;;;;;8306856;28;20463;-74
2021/03/03 19:29:32;;;;;;;58.60;29.77;;;12.50;67.10;;;;;;8320059;28;20442;-76
2021/03/03 19:33:38;;;;;;;66.17;31.10;;;12.50;67.30;;;;;;8317654;28;20481;-74
2021/03/03 19:37:39;;;;;;;51.87;26.30;;;12.50;67.40;;;;;;8300548;28;20204;-75
2021/03/03 19:41:40;;;;;;;59.40;28.27;;;12.40;67.30;;;;;;8318345;28;20521;-75
2021/03/03 19:45:45;;;;;;;65.10;27.90;;;12.40;67.60;;;;;;8323187;28;20241;-75
2021/03/03 19:49:45;;;;;;;57.27;29.40;;;12.30;67.80;;;;;;8320550;28;20581;-73
2021/03/03 19:53:48;;;;;;;63.60;29.73;;;12.20;68.10;;;;;;8292602;28;20276;-75
2021/03/03 19:57:49;;;;;;;68.93;30.60;;;12.20;68.40;;;;;;8316759;28;20188;-76
2021/03/03 20:01:49;;;;;;;70.80;30.83;;;12.10;68.50;;;;;;8311767;28;20558;-73
2021/03/03 20:06:04;;;;;;;67.67;29.43;;;12.10;68.40;;;;;;8292261;28;20203;-74
2021/03/03 20:10:11;;;;;;;57.40;28.03;;;12.10;68.30;;;;;;8312872;28;20215;-74
2021/03/03 20:14:13;;;;;;;55.67;27.93;;;12.10;68.40;;;;;;8310727;28;20471;-75
2021/03/03 20:18:15;;;;;;;52.80;26.80;;;12.00;68.30;;;;;;8319714;28;20497;-75
2021/03/03 20:22:17;;;;;;;64.53;30.13;;;12.00;68.10;;;;;;8328878;28;20627;-77
2021/03/03 20:26:29;;;;;;;58.57;30.67;;;11.80;68.90;;;;;;8318722;28;20450;-76
2021/03/03 20:30:35;;;;;;;60.53;28.50;;;11.80;68.70;;;;;;8322513;28;20802;-74
2021/03/03 20:34:37;;;;;;;64.73;31.67;;;11.60;69.00;;;;;;8317054;28;20481;-77
2021/03/03 20:38:47;;;;;;;70.53;29.07;;;11.60;69.50;;;;;;8323219;28;20481;-75
2021/03/03 20:42:54;;;;;;;69.27;33.23;;;11.60;70.10;;;;;;8321766;28;20534;-73
2021/03/03 20:46:55;;;;;;;90.30;31.07;;;11.50;70.10;;;;;;8319036;28;20446;-74
2021/03/03 20:50:56;;;;;;;66.13;29.77;;;11.50;70.10;;;;;;8322142;28;20551;-75